createdAt,value
2022-09-20T00:01:34.371Z,2.50
2022-09-20T00:04:37.574Z,2.55
2022-09-20T00:07:45.185Z,2.47
2022-09-20T00:10:48.685Z,2.30
2022-09-20T00:13:54.743Z,2.72
2022-09-20T00:16:58.004Z,2.60
2022-09-20T00:20:01.286Z,2.20
2022-09-20T00:23:05.846Z,1.70
2022-09-20T00:26:09.230Z,2.40
2022-09-20T00:29:13.743Z,2.90
2022-09-20T00:32:17.096Z,2.58
2022-09-20T00:35:19.336Z,2.17
2022-09-20T00:38:23.876Z,2.58
2022-09-20T00:41:27.323Z,2.45
2022-09-20T00:44:45.944Z,2.70
2022-09-20T00:51:00.468Z,3.28
2022-09-20T00:54:08.932Z,2.58
2022-09-20T00:57:12.158Z,3.10
2022-09-20T01:00:16.692Z,3.13
2022-09-20T01:03:22.929Z,3.28
2022-09-20T01:06:26.116Z,2.78
2022-09-20T01:09:30.630Z,3.40
2022-09-20T01:12:35.406Z,2.83
2022-09-20T01:15:40.736Z,3.15
2022-09-20T01:18:44.758Z,2.88
2022-09-20T01:21:49.383Z,2.55
2022-09-20T01:25:01.828Z,2.90
2022-09-20T01:28:06.602Z,2.70
2022-09-20T01:31:16.296Z,2.22
2022-09-20T01:34:24.984Z,2.83
2022-09-20T01:37:31.756Z,2.42
2022-09-20T01:40:44.920Z,3.30
2022-09-20T01:43:53.795Z,2.50
2022-09-20T01:47:05.063Z,3.08
2022-09-20T01:50:16.673Z,2.80
2022-09-20T01:53:54.580Z,2.33
2022-09-20T01:57:30.699Z,2.70
2022-09-20T02:00:52.417Z,2.65
2022-09-20T02:04:35.928Z,2.50
2022-09-20T02:08:10.009Z,2.30
2022-09-20T02:11:17.207Z,2.45
2022-09-20T02:14:35.864Z,2.40
2022-09-20T02:17:49.557Z,2.70
2022-09-20T02:20:58.060Z,2.47
2022-09-20T02:24:11.920Z,2.55
2022-09-20T02:27:24.144Z,3.13
2022-09-20T02:30:42.991Z,2.22
2022-09-20T02:34:04.669Z,2.72
2022-09-20T02:37:25.562Z,2.47
2022-09-20T02:40:54.085Z,2.95
2022-09-20T02:44:04.109Z,3.33
2022-09-20T02:47:15.751Z,2.92
2022-09-20T02:50:38.391Z,3.58
2022-09-20T02:53:52.971Z,3.38
2022-09-20T02:57:04.560Z,3.40
2022-09-20T03:00:13.386Z,3.30
2022-09-20T03:03:27.742Z,4.22
2022-09-20T03:06:44.562Z,4.25
2022-09-20T03:09:56.854Z,4.00
2022-09-20T03:13:16.137Z,4.50
2022-09-20T03:16:30.720Z,3.60
2022-09-20T03:19:46.834Z,5.18
2022-09-20T03:22:58.843Z,3.95
2022-09-20T03:26:15.684Z,4.38
2022-09-20T03:29:36.252Z,4.13
2022-09-20T03:34:44.788Z,4.97
2022-09-20T03:38:03.952Z,4.07
2022-09-20T03:41:29.017Z,4.18
2022-09-20T03:44:47.650Z,3.92
2022-09-20T03:51:30.416Z,3.70
2022-09-20T03:55:05.611Z,5.63
2022-09-20T03:58:21.241Z,3.92
2022-09-20T04:01:46.572Z,3.63
2022-09-20T04:04:56.398Z,4.43
2022-09-20T04:08:15.142Z,4.75
2022-09-20T04:11:26.966Z,4.55
2022-09-20T04:14:39.234Z,3.60
2022-09-20T04:17:52.859Z,4.13
2022-09-20T04:21:04.010Z,4.30
2022-09-20T04:24:14.192Z,5.72
2022-09-20T04:27:24.741Z,5.53
2022-09-20T04:30:31.926Z,6.18
2022-09-20T04:33:40.970Z,6.00
2022-09-20T04:37:22.853Z,6.30
2022-09-20T04:40:43.777Z,7.20
2022-09-20T04:44:27.791Z,5.72
2022-09-20T04:48:05.785Z,6.05
2022-09-20T04:51:53.888Z,6.13
2022-09-20T04:55:33.756Z,6.57
2022-09-20T04:58:44.896Z,6.53
2022-09-20T05:02:10.772Z,6.22
2022-09-20T05:05:56.309Z,5.57
2022-09-20T05:09:44.630Z,5.60
2022-09-20T05:13:11.424Z,5.57
2022-09-20T05:16:23.185Z,5.40
2022-09-20T05:19:32.599Z,6.20
2022-09-20T05:22:56.386Z,5.72
2022-09-20T05:26:15.983Z,5.93
2022-09-20T05:29:35.110Z,5.63
2022-09-20T05:32:48.742Z,12.32
2022-09-20T05:36:18.608Z,6.78
2022-09-20T05:39:47.379Z,9.27
2022-09-20T05:42:56.788Z,6.13
2022-09-20T05:46:15.264Z,7.70
2022-09-20T05:49:37.150Z,8.85
2022-09-20T05:52:52.673Z,6.95
2022-09-20T05:56:10.045Z,6.55
2022-09-20T05:59:31.332Z,8.30
2022-09-20T06:02:46.169Z,6.78
2022-09-20T06:05:59.950Z,8.20
2022-09-20T06:09:21.169Z,8.38
2022-09-20T06:12:42.088Z,6.80
2022-09-20T06:15:53.438Z,7.40
2022-09-20T06:19:06.025Z,7.38
2022-09-20T06:22:17.713Z,6.18
2022-09-20T06:25:25.515Z,6.93
2022-09-20T06:28:32.154Z,6.20
2022-09-20T06:31:35.318Z,6.03
2022-09-20T06:34:38.630Z,5.45
2022-09-20T06:38:09.815Z,5.10
2022-09-20T06:41:29.867Z,5.80
2022-09-20T06:44:34.107Z,5.15
2022-09-20T06:47:38.845Z,5.55
2022-09-20T06:50:45.351Z,5.20
2022-09-20T06:53:50.731Z,5.45
2022-09-20T06:56:53.900Z,5.32
2022-09-20T06:59:57.476Z,4.88
2022-09-20T07:03:00.585Z,6.20
2022-09-20T07:06:04.414Z,6.03
2022-09-20T07:09:08.901Z,5.65
2022-09-20T07:12:12.469Z,6.00
2022-09-20T07:15:16.905Z,6.78
2022-09-20T07:18:20.175Z,6.03
2022-09-20T07:21:23.470Z,6.57
2022-09-20T07:24:32.191Z,6.40
2022-09-20T07:27:35.684Z,6.45
2022-09-20T07:30:38.767Z,6.53
2022-09-20T07:33:41.975Z,5.65
2022-09-20T07:36:45.270Z,6.38
2022-09-20T07:39:49.885Z,6.85
2022-09-20T07:42:56.125Z,5.53
2022-09-20T07:46:00.184Z,5.78
2022-09-20T07:49:03.524Z,5.30
2022-09-20T07:52:07.683Z,5.63
2022-09-20T07:55:12.405Z,5.05
2022-09-20T07:58:15.539Z,5.90
2022-09-20T08:01:20.933Z,4.75
2022-09-20T08:04:24.636Z,4.40
2022-09-20T08:07:28.247Z,4.32
2022-09-20T08:10:33.002Z,3.63
2022-09-20T08:17:01.056Z,4.10
2022-09-20T08:20:04.903Z,3.08
2022-09-20T08:23:23.040Z,3.78
2022-09-20T08:26:31.139Z,3.13
2022-09-20T08:29:34.307Z,2.90
2022-09-20T08:32:41.153Z,3.17
2022-09-20T08:35:44.856Z,2.38
2022-09-20T08:42:20.515Z,2.67
2022-09-20T08:45:35.079Z,2.72
2022-09-20T08:48:38.614Z,2.72
2022-09-20T08:51:48.504Z,3.00
2022-09-20T08:54:52.235Z,2.20
2022-09-20T08:57:59.085Z,2.67
2022-09-20T09:01:02.858Z,3.05
2022-09-20T09:04:14.931Z,2.40
2022-09-20T09:07:24.686Z,1.92
2022-09-20T09:10:42.500Z,2.00
2022-09-20T09:13:54.164Z,1.88
2022-09-20T09:16:57.552Z,1.83
2022-09-20T09:20:16.032Z,1.70
2022-09-20T09:26:29.021Z,2.08
2022-09-20T09:29:34.972Z,2.10
2022-09-20T09:34:28.203Z,2.20
2022-09-20T09:37:33.260Z,2.78
2022-09-20T09:40:37.586Z,1.42
2022-09-20T09:43:40.972Z,1.77
2022-09-20T09:46:44.317Z,3.40
2022-09-20T09:50:01.899Z,2.58
2022-09-20T09:53:11.663Z,2.20
2022-09-20T09:56:42.632Z,2.10
2022-09-20T10:00:06.130Z,1.80
2022-09-20T10:03:39.308Z,2.10
2022-09-20T10:06:52.561Z,2.33
2022-09-20T10:10:07.495Z,2.55
2022-09-20T10:13:19.977Z,2.45
2022-09-20T10:16:33.919Z,2.28
2022-09-20T10:19:50.749Z,3.08
2022-09-20T10:23:39.515Z,3.47
2022-09-20T10:26:51.292Z,3.47
2022-09-20T10:30:05.205Z,3.78
2022-09-20T10:33:23.596Z,4.97
2022-09-20T10:36:35.626Z,4.22
2022-09-20T10:39:41.252Z,2.95
2022-09-20T10:43:07.426Z,3.03
2022-09-20T10:46:31.893Z,3.47
2022-09-20T10:49:43.075Z,2.28
2022-09-20T10:53:01.043Z,2.65
2022-09-20T10:56:17.907Z,2.65
2022-09-20T10:59:41.432Z,2.90
2022-09-20T11:02:58.494Z,2.22
2022-09-20T11:06:16.078Z,2.55
2022-09-20T11:09:24.338Z,2.97
2022-09-20T11:12:34.287Z,3.00
2022-09-20T11:15:44.061Z,2.97
2022-09-20T11:18:55.640Z,2.70
2022-09-20T11:22:05.078Z,2.33
2022-09-20T11:25:20.421Z,2.40
2022-09-20T11:28:30.441Z,2.92
2022-09-20T11:31:39.353Z,2.00
2022-09-20T11:34:53.518Z,2.17
2022-09-20T11:38:07.621Z,2.13
2022-09-20T11:41:16.711Z,2.33
2022-09-20T11:44:21.910Z,2.10
2022-09-20T11:47:53.465Z,2.30
2022-09-20T11:51:20.775Z,1.92
2022-09-20T11:54:42.985Z,2.53
2022-09-20T11:57:46.804Z,1.80
2022-09-20T12:00:55.058Z,2.10
2022-09-20T12:04:27.842Z,2.42
2022-09-20T12:07:27.569Z,2.08
2022-09-20T12:10:34.705Z,1.80
2022-09-20T12:13:40.033Z,1.95
2022-09-20T12:16:46.162Z,2.05
2022-09-20T12:19:49.711Z,2.00
2022-09-20T12:22:52.866Z,1.77
2022-09-20T12:26:06.944Z,1.75
2022-09-20T12:29:55.833Z,1.50
2022-09-20T12:33:02.331Z,1.42
2022-09-20T12:36:18.868Z,1.15
2022-09-20T12:39:29.771Z,1.00
2022-09-20T12:42:35.205Z,1.20
2022-09-20T12:45:38.441Z,1.10
2022-09-20T12:48:43.088Z,1.00
2022-09-20T12:52:09.677Z,0.95
2022-09-20T12:55:26.949Z,1.23
2022-09-20T12:58:39.665Z,1.00
2022-09-20T13:01:43.645Z,0.90
2022-09-20T13:04:57.233Z,1.20
2022-09-20T13:08:04.032Z,1.38
2022-09-20T13:11:17.167Z,1.50
2022-09-20T13:14:24.687Z,1.00
2022-09-20T13:17:30.977Z,1.50
2022-09-20T13:20:36.652Z,1.00
2022-09-20T13:23:49.520Z,0.85
2022-09-20T13:26:55.000Z,1.00
2022-09-20T13:30:10.213Z,1.35
2022-09-20T13:33:21.969Z,1.05
2022-09-20T13:36:31.628Z,1.10
2022-09-20T13:39:37.599Z,0.68
2022-09-20T13:42:40.916Z,1.20
2022-09-20T13:45:45.019Z,0.90
2022-09-20T13:48:49.367Z,0.95
2022-09-20T13:51:54.196Z,1.05
2022-09-20T13:54:57.861Z,0.93
2022-09-20T13:58:04.034Z,1.02
2022-09-20T14:01:19.838Z,1.10
2022-09-20T14:04:25.623Z,1.20
2022-09-20T14:07:31.023Z,1.00
2022-09-20T14:10:37.144Z,0.85
2022-09-20T14:13:42.901Z,1.15
2022-09-20T14:16:49.271Z,1.45
2022-09-20T14:20:16.369Z,1.10
2022-09-20T14:26:29.900Z,1.40
2022-09-20T14:29:41.166Z,1.55
2022-09-20T14:32:48.052Z,1.10
2022-09-20T14:35:52.582Z,0.85
2022-09-20T14:39:00.015Z,1.00
2022-09-20T14:42:03.284Z,1.50
2022-09-20T14:45:08.990Z,1.02
2022-09-20T14:48:37.009Z,0.95
2022-09-20T14:51:40.598Z,1.00
2022-09-20T14:54:58.899Z,1.88
2022-09-20T15:01:24.407Z,1.02
2022-09-20T15:04:28.674Z,1.02
2022-09-20T15:07:31.954Z,0.88
2022-09-20T15:10:36.503Z,0.93
2022-09-20T15:13:40.465Z,1.58
2022-09-20T15:16:43.880Z,0.70
2022-09-20T15:19:47.552Z,1.00
2022-09-20T15:22:51.174Z,2.10
2022-09-20T15:25:56.426Z,1.00
2022-09-20T15:29:00.621Z,1.10
2022-09-20T15:34:12.569Z,0.80
2022-09-20T15:37:15.997Z,0.93
2022-09-20T15:40:19.184Z,0.90
2022-09-20T15:43:27.182Z,1.00
2022-09-20T15:46:31.062Z,1.25
2022-09-20T15:49:35.594Z,1.00
2022-09-20T15:52:40.628Z,0.98
2022-09-20T15:55:44.562Z,1.10
2022-09-20T15:58:51.137Z,1.00
2022-09-20T16:01:54.337Z,0.90
2022-09-20T16:04:59.578Z,0.60
2022-09-20T16:08:03.020Z,0.80
2022-09-20T16:11:07.241Z,0.73
2022-09-20T16:14:10.505Z,0.85
2022-09-20T16:17:13.618Z,2.70
2022-09-20T16:20:17.147Z,0.80
2022-09-20T16:23:24.026Z,0.93
2022-09-20T16:26:32.892Z,0.80
2022-09-20T16:29:36.304Z,1.07
2022-09-20T16:32:39.429Z,0.82
2022-09-20T16:35:43.896Z,1.08
2022-09-20T16:38:47.053Z,1.00
2022-09-20T16:41:51.048Z,1.90
2022-09-20T16:44:54.549Z,2.25
2022-09-20T16:47:59.019Z,1.08
2022-09-20T16:51:03.701Z,1.10
2022-09-20T16:54:11.629Z,0.77
2022-09-20T16:57:15.628Z,2.40
2022-09-20T17:00:21.120Z,1.50
2022-09-20T17:03:27.060Z,7.55
2022-09-20T17:06:31.877Z,5.55
2022-09-20T17:09:35.045Z,2.63
2022-09-20T17:12:42.004Z,3.90
2022-09-20T17:15:45.268Z,6.22
2022-09-20T17:18:54.270Z,13.65
2022-09-20T17:22:00.141Z,1.90
2022-09-20T17:25:03.359Z,2.15
2022-09-20T17:28:06.625Z,1.55
2022-09-20T17:31:13.436Z,1.50
2022-09-20T17:34:21.480Z,1.42
2022-09-20T17:37:26.284Z,1.92
2022-09-20T17:40:29.412Z,1.40
2022-09-20T17:43:33.436Z,1.80
2022-09-20T17:46:38.349Z,2.75
2022-09-20T17:49:41.761Z,2.47
2022-09-20T17:52:46.736Z,5.90
2022-09-20T17:55:54.543Z,8.38
2022-09-20T17:58:58.671Z,4.53
2022-09-20T18:02:01.879Z,3.28
2022-09-20T18:05:05.389Z,1.90
2022-09-20T18:08:10.030Z,2.25
2022-09-20T18:11:13.564Z,2.80
2022-09-20T18:14:18.129Z,2.50
2022-09-20T18:17:21.228Z,2.92
2022-09-20T18:20:24.483Z,2.47
2022-09-20T18:23:30.599Z,2.10
2022-09-20T18:26:34.377Z,5.15
2022-09-20T18:29:37.574Z,2.15
2022-09-20T18:32:44.359Z,2.58
2022-09-20T18:35:47.595Z,2.88
2022-09-20T18:38:54.838Z,2.60
2022-09-20T18:41:58.054Z,2.37
2022-09-20T18:45:01.517Z,2.72
2022-09-20T18:48:07.464Z,3.10
2022-09-20T18:51:11.515Z,4.38
2022-09-20T18:54:16.310Z,4.22
2022-09-20T18:57:20.079Z,4.00
2022-09-20T19:00:24.382Z,3.28
2022-09-20T19:03:33.670Z,2.95
2022-09-20T19:06:44.392Z,3.30
2022-09-20T19:09:53.621Z,3.20
2022-09-20T19:13:04.624Z,3.78
2022-09-20T19:16:18.444Z,5.18
2022-09-20T19:19:38.077Z,4.78
2022-09-20T19:22:56.991Z,5.18
2022-09-20T19:26:08.678Z,8.50
2022-09-20T19:29:19.586Z,7.45
2022-09-20T19:32:26.157Z,7.55
2022-09-20T19:35:34.619Z,7.68
2022-09-20T19:38:44.328Z,7.40
2022-09-20T19:41:58.113Z,6.53
2022-09-20T19:45:08.476Z,8.60
2022-09-20T19:48:21.188Z,7.22
2022-09-20T19:51:25.124Z,8.82
2022-09-20T19:54:28.845Z,12.40
2022-09-20T19:57:42.709Z,11.55
2022-09-20T20:00:47.414Z,10.25
2022-09-20T20:03:51.291Z,9.57
2022-09-20T20:07:04.930Z,9.63
2022-09-20T20:10:24.861Z,9.73
2022-09-20T20:13:55.325Z,11.35
2022-09-20T20:17:06.115Z,10.75
2022-09-20T20:20:20.121Z,9.75
2022-09-20T20:23:49.820Z,11.82
2022-09-20T20:26:53.117Z,12.00
2022-09-20T20:29:58.315Z,8.20
2022-09-20T20:33:04.081Z,9.68
2022-09-20T20:36:08.901Z,9.07
2022-09-20T20:39:12.214Z,9.25
2022-09-20T20:42:15.928Z,9.43
2022-09-20T20:45:21.328Z,9.23
2022-09-20T20:48:24.625Z,10.52
2022-09-20T20:51:33.082Z,10.25
2022-09-20T20:54:37.461Z,11.07
2022-09-20T20:57:40.609Z,10.90
2022-09-20T21:00:45.261Z,11.80
2022-09-20T21:03:49.984Z,11.57
2022-09-20T21:06:53.166Z,10.93
2022-09-20T21:09:56.257Z,10.70
2022-09-20T21:13:00.071Z,11.63
2022-09-20T21:16:09.124Z,11.77
2022-09-20T21:19:14.992Z,10.80
2022-09-20T21:22:18.436Z,10.93
2022-09-20T21:25:21.831Z,11.35
2022-09-20T21:28:24.932Z,11.73
2022-09-20T21:35:13.910Z,9.90
2022-09-20T21:38:17.189Z,8.63
2022-09-20T21:41:22.422Z,7.47
2022-09-20T21:44:26.178Z,8.98
2022-09-20T21:47:29.268Z,9.60
2022-09-20T21:50:34.126Z,9.25
2022-09-20T21:53:39.271Z,9.73
2022-09-20T21:56:42.720Z,9.48
2022-09-20T21:59:45.830Z,9.65
2022-09-20T22:02:49.122Z,9.70
2022-09-20T22:05:54.216Z,10.48
2022-09-20T22:08:59.520Z,10.68
2022-09-20T22:12:03.054Z,9.82
2022-09-20T22:15:07.440Z,9.65
2022-09-20T22:18:10.568Z,9.23
2022-09-20T22:21:17.068Z,9.43
2022-09-20T22:24:20.156Z,10.32
2022-09-20T22:27:23.353Z,10.02
2022-09-20T22:30:27.103Z,9.48
2022-09-20T22:33:30.882Z,9.20
2022-09-20T22:36:37.524Z,8.65
2022-09-20T22:39:41.461Z,9.52
2022-09-20T22:42:44.787Z,9.38
2022-09-20T22:45:47.944Z,10.02
2022-09-20T22:48:51.585Z,8.40
2022-09-20T22:51:56.059Z,9.52
2022-09-20T22:54:59.150Z,8.88
2022-09-20T22:58:02.214Z,9.57
2022-09-20T23:01:07.686Z,7.88
2022-09-20T23:04:13.369Z,7.70
2022-09-20T23:07:18.098Z,8.73
2022-09-20T23:10:22.032Z,6.95
2022-09-20T23:13:25.319Z,8.45
2022-09-20T23:16:31.507Z,9.82
2022-09-20T23:19:34.666Z,8.57
2022-09-20T23:22:39.174Z,8.73
2022-09-20T23:25:42.320Z,9.15
2022-09-20T23:28:47.589Z,9.32
2022-09-20T23:31:51.408Z,7.90
2022-09-20T23:34:54.647Z,8.95
2022-09-20T23:37:59.446Z,8.63
2022-09-20T23:41:04.251Z,7.95
2022-09-20T23:44:09.665Z,9.05
2022-09-20T23:47:12.848Z,9.50
2022-09-20T23:50:16.196Z,8.95
2022-09-20T23:53:21.865Z,9.45
2022-09-20T23:56:25.093Z,8.18
2022-09-20T23:59:28.323Z,8.73
